Friday, November 28, 2014, 9:12 AM EST
Back to Local

KLEB, Lebanon Municipal Airport

Location: Lebanon, NH, United States Lat: 43.633
Local Time: 9:12 AM EST (14:12 GMT) Lon: -72.3
Time Zone: US/Eastern Elev: 597 ft

Show me the last for .
Show Coded

Time T Td Feel RH Dir Speed Gust Alt SLP Vis Weather Sky Remarks
2014-11-28 08:53 27 21 - 77 - Calm - 30.06 30.09 10 OVC043 None
2014-11-28 07:53 22 18 - 84 - Calm - 30.05 30.09 9 SCT080 None
2014-11-28 06:53 25 21 - 85 - Calm - 30.04 - 8 OVC050 None
2014-11-28 05:53 25 20 21 80 330° 3 - 30.03 30.06 5 -SN OVC042 1-hr Precip Total: Trace
2014-11-28 04:53 25 20 - 80 - Calm - 30.02 30.05 10 FEW060 BKN075 OVC090 None
2014-11-28 03:53 26 21 - 80 - Calm - 30.01 30.04 10 FEW010 FEW060 OVC090 1-hr Precip Total: Trace
6-hr Precip Total (4am): 0.00"
2014-11-28 03:16 25 22 - 87 - Calm - 30.00 - 3 -SN BR OVC040 1-hr Precip Total: Trace
2014-11-28 03:08 25 22 - 87 - Calm - 30.00 - 1 -SN BR OVC031 1-hr Precip Total: Trace
2014-11-28 03:04 25 22 - 87 - Calm - 30.00 - 2 -SN BR OVC029 1-hr Precip Total: Trace
2014-11-28 02:53 25 22 - 87 - Calm - 30.00 30.03 10 BKN042 BKN070 OVC085 1-hr Precip Total: Trace
2014-11-28 02:12 26 22 - 84 - Calm - 30.00 - 4 BR BKN032 1-hr Precip Total: Trace
2014-11-28 01:53 27 21 23 77 300° 3 - 30.00 30.03 3 -SN BKN026 OVC033 1-hr Precip Total: Trace
2014-11-28 00:53 27 21 23 77 10° 3 - 29.99 30.02 10 OVC019 6-hr Min Temp (1am): 27.0°F
6-hr Max Temp (1am): 28.9°F
2014-11-27 23:53 27 22 - 80 - Calm - 30.00 30.03 10 OVC017 24-hr Min Temp (12am): 27.0°F
24-hr Max Temp (12am): 30.9°F
2014-11-27 22:53 28 21 - 74 - Calm - 30.02 - 10 OVC017 None
2014-11-27 21:53 28 22 23 77 30° 5 - 30.02 30.05 10 OVC020 None
2014-11-27 20:53 28 22 20 77 40° 8 - 30.01 30.04 10 OVC022 None
2014-11-27 19:53 28 22 22 77 30° 6 - 30.00 30.03 10 OVC021 None
2014-11-27 18:53 29 23 24 78 30° 5 - 29.99 30.02 10 OVC020 6-hr Min Temp (7pm): 28.9°F
6-hr Max Temp (7pm): 30.9°F
2014-11-27 17:53 29 23 23 78 30° 6 - 29.98 30.01 10 OVC021 None
2014-11-27 16:53 29 22 23 74 20° 6 - 29.98 30.01 10 OVC024 None
2014-11-27 15:53 30 23 25 74 20° 5 - 29.98 30.01 10 OVC023 None
2014-11-27 14:53 30 21 22 68 350° 8 - 29.97 29.99 10 OVC022 None
2014-11-27 13:53 31 22 25 68 10° 6 - 29.96 29.98 10 OVC020 None
2014-11-27 12:53 30 22 23 71 30° 7 - 29.97 29.99 10 OVC020 6-hr Min Temp (1pm): 28.9°F
6-hr Max Temp (1pm): 30.0°F
2014-11-27 11:53 30 21 22 68 350° 8 - 29.95 29.98 10 OVC022 None
2014-11-27 10:53 30 22 23 71 310° 7 - 29.97 29.99 10 OVC022 None
2014-11-27 09:53 30 23 24 74 330° 6 - 29.95 29.97 10 OVC023 None

Support USWX by starting your Amazon purchase here.